KCOD

Yellowstone Regional Airport

Cody, Wyoming, USA
METAR KCOD 230956Z AUTO 19005KT 10SM CLR M20/M22 A3003 RMK AO2 SLP265 T12001222 FZRANO
Observed Flight Rules
Feb-23 @ 09:56 UTC (31 minutes ago) Visual Flight Rules
Wind Visibility Clouds
190° at 5 knots 10 miles
  • Clear skies
Temperatures Readings
Current -20°C / -4°F
Dewpoint -22°C / -8°F
Humidity 84%
Altimeter 30.03" Hg
Pressure 1026.5 hPa
Elevation 1553
METAR KCOD 230956Z AUTO 19005KT 10SM CLR M20/M22 A3003 RMK AO2 SLP265 T12001222 FZRANO
Observed Flight Rules
Feb-23 @ 09:56 UTC
(31 minutes ago)
VFR
Wind Visibility
190° at 5 knots 10 miles
Clouds
  • Clear skies
Temperature Dewpoint
-20°C / -4°F -22°C / -8°F
Humidity Altimeter Pressure
84% 30.03" Hg 1026.5 hPa